sensor_id;sensor_type;location;lat;lon;timestamp;P1;durP1;ratioP1;P2;durP2;ratioP2
65156;SDS011;52745;49.794;18.258;2023-05-20T00:01:26;21.92;;;12.15;;
65156;SDS011;52745;49.794;18.258;2023-05-20T00:03:53;22.85;;;12.10;;
65156;SDS011;52745;49.794;18.258;2023-05-20T00:06:20;21.17;;;10.82;;
65156;SDS011;52745;49.794;18.258;2023-05-20T00:08:46;23.55;;;12.25;;
65156;SDS011;52745;49.794;18.258;2023-05-20T00:11:13;26.95;;;12.70;;
65156;SDS011;52745;49.794;18.258;2023-05-20T00:13:40;19.63;;;11.63;;
65156;SDS011;52745;49.794;18.258;2023-05-20T00:16:06;20.40;;;11.57;;
65156;SDS011;52745;49.794;18.258;2023-05-20T00:18:33;22.73;;;12.32;;
65156;SDS011;52745;49.794;18.258;2023-05-20T00:21:00;20.55;;;11.40;;
65156;SDS011;52745;49.794;18.258;2023-05-20T00:23:26;22.75;;;11.98;;
65156;SDS011;52745;49.794;18.258;2023-05-20T00:25:53;22.73;;;11.30;;
65156;SDS011;52745;49.794;18.258;2023-05-20T00:28:19;25.10;;;11.98;;
65156;SDS011;52745;49.794;18.258;2023-05-20T00:30:48;23.33;;;12.18;;
65156;SDS011;52745;49.794;18.258;2023-05-20T00:33:15;21.75;;;11.50;;
65156;SDS011;52745;49.794;18.258;2023-05-20T00:35:41;21.92;;;11.73;;
65156;SDS011;52745;49.794;18.258;2023-05-20T00:38:08;21.75;;;11.80;;
65156;SDS011;52745;49.794;18.258;2023-05-20T00:40:35;22.58;;;11.85;;
65156;SDS011;52745;49.794;18.258;2023-05-20T00:43:02;24.95;;;11.32;;
65156;SDS011;52745;49.794;18.258;2023-05-20T00:45:29;22.23;;;11.25;;
65156;SDS011;52745;49.794;18.258;2023-05-20T00:47:57;21.20;;;11.43;;
65156;SDS011;52745;49.794;18.258;2023-05-20T00:50:26;21.83;;;12.32;;
65156;SDS011;52745;49.794;18.258;2023-05-20T00:52:53;25.35;;;12.50;;
65156;SDS011;52745;49.794;18.258;2023-05-20T00:55:21;22.58;;;11.25;;
65156;SDS011;52745;49.794;18.258;2023-05-20T00:57:48;22.58;;;11.65;;
65156;SDS011;52745;49.794;18.258;2023-05-20T01:00:15;21.20;;;11.82;;
65156;SDS011;52745;49.794;18.258;2023-05-20T01:02:41;18.92;;;11.23;;
65156;SDS011;52745;49.794;18.258;2023-05-20T01:05:10;21.15;;;11.82;;
65156;SDS011;52745;49.794;18.258;2023-05-20T01:07:36;21.70;;;12.13;;
65156;SDS011;52745;49.794;18.258;2023-05-20T01:10:03;21.63;;;11.70;;
65156;SDS011;52745;49.794;18.258;2023-05-20T01:12:32;21.02;;;11.18;;
65156;SDS011;52745;49.794;18.258;2023-05-20T01:15:00;22.10;;;11.63;;
65156;SDS011;52745;49.794;18.258;2023-05-20T01:17:32;22.20;;;11.23;;
65156;SDS011;52745;49.794;18.258;2023-05-20T01:20:05;19.50;;;11.00;;
65156;SDS011;52745;49.794;18.258;2023-05-20T01:22:54;21.55;;;11.05;;
65156;SDS011;52745;49.794;18.258;2023-05-20T01:25:22;19.63;;;10.55;;
65156;SDS011;52745;49.794;18.258;2023-05-20T01:27:51;18.10;;;10.50;;
65156;SDS011;52745;49.794;18.258;2023-05-20T01:30:19;20.67;;;10.85;;
65156;SDS011;52745;49.794;18.258;2023-05-20T01:32:47;20.17;;;10.95;;
65156;SDS011;52745;49.794;18.258;2023-05-20T01:35:18;20.17;;;10.75;;
65156;SDS011;52745;49.794;18.258;2023-05-20T01:37:46;19.33;;;10.30;;
65156;SDS011;52745;49.794;18.258;2023-05-20T01:40:14;18.60;;;10.05;;
65156;SDS011;52745;49.794;18.258;2023-05-20T01:42:42;20.77;;;10.60;;
65156;SDS011;52745;49.794;18.258;2023-05-20T01:45:10;17.40;;;9.98;;
65156;SDS011;52745;49.794;18.258;2023-05-20T01:47:37;20.73;;;11.40;;
65156;SDS011;52745;49.794;18.258;2023-05-20T01:50:04;20.95;;;11.00;;
65156;SDS011;52745;49.794;18.258;2023-05-20T01:52:32;17.17;;;10.25;;
65156;SDS011;52745;49.794;18.258;2023-05-20T01:54:59;22.67;;;11.98;;
65156;SDS011;52745;49.794;18.258;2023-05-20T01:57:25;25.00;;;12.10;;
65156;SDS011;52745;49.794;18.258;2023-05-20T01:59:52;25.40;;;12.18;;
65156;SDS011;52745;49.794;18.258;2023-05-20T02:02:19;25.70;;;12.68;;
65156;SDS011;52745;49.794;18.258;2023-05-20T02:04:47;26.33;;;13.20;;
65156;SDS011;52745;49.794;18.258;2023-05-20T02:07:17;25.20;;;13.10;;
65156;SDS011;52745;49.794;18.258;2023-05-20T02:09:45;28.02;;;13.40;;
65156;SDS011;52745;49.794;18.258;2023-05-20T02:12:12;30.58;;;13.75;;
65156;SDS011;52745;49.794;18.258;2023-05-20T02:14:43;31.95;;;14.43;;
65156;SDS011;52745;49.794;18.258;2023-05-20T02:17:11;33.53;;;14.88;;
65156;SDS011;52745;49.794;18.258;2023-05-20T02:19:39;29.83;;;14.13;;
65156;SDS011;52745;49.794;18.258;2023-05-20T02:22:06;32.92;;;14.63;;
65156;SDS011;52745;49.794;18.258;2023-05-20T02:24:33;30.38;;;13.73;;
65156;SDS011;52745;49.794;18.258;2023-05-20T02:27:00;31.13;;;14.85;;
65156;SDS011;52745;49.794;18.258;2023-05-20T02:29:30;38.25;;;14.98;;
65156;SDS011;52745;49.794;18.258;2023-05-20T02:31:56;38.03;;;15.73;;
65156;SDS011;52745;49.794;18.258;2023-05-20T02:34:23;35.63;;;15.75;;
65156;SDS011;52745;49.794;18.258;2023-05-20T02:36:51;29.38;;;15.05;;
65156;SDS011;52745;49.794;18.258;2023-05-20T02:39:18;36.65;;;15.48;;
65156;SDS011;52745;49.794;18.258;2023-05-20T02:41:45;35.28;;;15.95;;
65156;SDS011;52745;49.794;18.258;2023-05-20T02:44:12;34.75;;;14.73;;
65156;SDS011;52745;49.794;18.258;2023-05-20T02:46:39;33.15;;;15.00;;
65156;SDS011;52745;49.794;18.258;2023-05-20T02:49:06;34.83;;;14.98;;
65156;SDS011;52745;49.794;18.258;2023-05-20T02:51:32;32.88;;;15.40;;
65156;SDS011;52745;49.794;18.258;2023-05-20T02:53:59;34.30;;;15.52;;
65156;SDS011;52745;49.794;18.258;2023-05-20T02:56:26;33.83;;;15.93;;
65156;SDS011;52745;49.794;18.258;2023-05-20T02:58:54;37.80;;;16.85;;
65156;SDS011;52745;49.794;18.258;2023-05-20T03:01:20;32.15;;;14.57;;
65156;SDS011;52745;49.794;18.258;2023-05-20T03:03:48;34.22;;;15.30;;
65156;SDS011;52745;49.794;18.258;2023-05-20T03:06:15;36.65;;;16.25;;
65156;SDS011;52745;49.794;18.258;2023-05-20T03:08:42;36.22;;;16.48;;
65156;SDS011;52745;49.794;18.258;2023-05-20T03:11:08;36.50;;;17.05;;
65156;SDS011;52745;49.794;18.258;2023-05-20T03:13:35;32.80;;;15.15;;
65156;SDS011;52745;49.794;18.258;2023-05-20T03:16:02;34.55;;;15.82;;
65156;SDS011;52745;49.794;18.258;2023-05-20T03:18:31;33.22;;;15.63;;
65156;SDS011;52745;49.794;18.258;2023-05-20T03:20:59;36.97;;;15.57;;
65156;SDS011;52745;49.794;18.258;2023-05-20T03:23:26;34.75;;;15.23;;
65156;SDS011;52745;49.794;18.258;2023-05-20T03:25:52;36.72;;;16.60;;
65156;SDS011;52745;49.794;18.258;2023-05-20T03:28:19;43.70;;;17.40;;
65156;SDS011;52745;49.794;18.258;2023-05-20T03:30:46;40.95;;;16.38;;
65156;SDS011;52745;49.794;18.258;2023-05-20T03:33:14;34.33;;;16.58;;
65156;SDS011;52745;49.794;18.258;2023-05-20T03:35:41;38.75;;;16.13;;
65156;SDS011;52745;49.794;18.258;2023-05-20T03:38:07;37.17;;;16.40;;
65156;SDS011;52745;49.794;18.258;2023-05-20T03:40:36;34.30;;;16.10;;
65156;SDS011;52745;49.794;18.258;2023-05-20T03:43:03;36.28;;;16.08;;
65156;SDS011;52745;49.794;18.258;2023-05-20T03:45:30;34.75;;;15.35;;
65156;SDS011;52745;49.794;18.258;2023-05-20T03:48:03;32.40;;;15.20;;
65156;SDS011;52745;49.794;18.258;2023-05-20T03:50:32;31.08;;;14.82;;
65156;SDS011;52745;49.794;18.258;2023-05-20T03:53:00;35.45;;;16.33;;
65156;SDS011;52745;49.794;18.258;2023-05-20T03:55:29;34.35;;;15.43;;
65156;SDS011;52745;49.794;18.258;2023-05-20T03:57:57;37.10;;;16.10;;
65156;SDS011;52745;49.794;18.258;2023-05-20T04:00:25;42.50;;;17.08;;
65156;SDS011;52745;49.794;18.258;2023-05-20T04:02:51;42.47;;;17.90;;
65156;SDS011;52745;49.794;18.258;2023-05-20T04:05:18;37.80;;;16.25;;
65156;SDS011;52745;49.794;18.258;2023-05-20T04:07:46;37.85;;;16.75;;
65156;SDS011;52745;49.794;18.258;2023-05-20T04:10:13;35.53;;;15.90;;
65156;SDS011;52745;49.794;18.258;2023-05-20T04:12:40;34.60;;;16.30;;
65156;SDS011;52745;49.794;18.258;2023-05-20T04:15:07;39.95;;;17.35;;
65156;SDS011;52745;49.794;18.258;2023-05-20T04:17:55;34.92;;;16.20;;
65156;SDS011;52745;49.794;18.258;2023-05-20T04:20:22;41.30;;;16.17;;
65156;SDS011;52745;49.794;18.258;2023-05-20T04:22:51;36.00;;;15.38;;
65156;SDS011;52745;49.794;18.258;2023-05-20T04:25:19;34.38;;;15.82;;
65156;SDS011;52745;49.794;18.258;2023-05-20T04:27:46;37.65;;;15.88;;
65156;SDS011;52745;49.794;18.258;2023-05-20T04:30:13;38.08;;;16.80;;
65156;SDS011;52745;49.794;18.258;2023-05-20T04:32:43;40.05;;;17.10;;
65156;SDS011;52745;49.794;18.258;2023-05-20T04:35:10;40.28;;;16.40;;
65156;SDS011;52745;49.794;18.258;2023-05-20T04:37:42;42.88;;;16.77;;
65156;SDS011;52745;49.794;18.258;2023-05-20T04:40:18;41.65;;;15.82;;
65156;SDS011;52745;49.794;18.258;2023-05-20T04:42:47;34.72;;;15.40;;
65156;SDS011;52745;49.794;18.258;2023-05-20T04:45:15;42.08;;;16.55;;
65156;SDS011;52745;49.794;18.258;2023-05-20T04:47:42;41.55;;;16.25;;
65156;SDS011;52745;49.794;18.258;2023-05-20T04:50:09;39.10;;;16.30;;
65156;SDS011;52745;49.794;18.258;2023-05-20T04:52:37;48.53;;;18.35;;
65156;SDS011;52745;49.794;18.258;2023-05-20T04:55:05;49.58;;;17.98;;
65156;SDS011;52745;49.794;18.258;2023-05-20T04:57:36;43.85;;;17.55;;
65156;SDS011;52745;49.794;18.258;2023-05-20T05:00:10;47.00;;;17.10;;
65156;SDS011;52745;49.794;18.258;2023-05-20T05:02:38;41.45;;;17.52;;
65156;SDS011;52745;49.794;18.258;2023-05-20T05:05:05;47.45;;;16.98;;
65156;SDS011;52745;49.794;18.258;2023-05-20T05:07:34;96.53;;;47.20;;
65156;SDS011;52745;49.794;18.258;2023-05-20T05:10:01;104.20;;;55.35;;
65156;SDS011;52745;49.794;18.258;2023-05-20T05:12:32;39.70;;;15.25;;
65156;SDS011;52745;49.794;18.258;2023-05-20T05:14:59;40.13;;;15.55;;
65156;SDS011;52745;49.794;18.258;2023-05-20T05:17:27;36.58;;;14.88;;
65156;SDS011;52745;49.794;18.258;2023-05-20T05:19:53;38.28;;;14.15;;
65156;SDS011;52745;49.794;18.258;2023-05-20T05:22:21;33.80;;;14.45;;
65156;SDS011;52745;49.794;18.258;2023-05-20T05:24:48;35.58;;;15.07;;
65156;SDS011;52745;49.794;18.258;2023-05-20T05:27:15;37.72;;;16.08;;
65156;SDS011;52745;49.794;18.258;2023-05-20T05:29:42;51.67;;;21.08;;
65156;SDS011;52745;49.794;18.258;2023-05-20T05:32:08;34.72;;;14.98;;
65156;SDS011;52745;49.794;18.258;2023-05-20T05:34:35;44.97;;;20.15;;
65156;SDS011;52745;49.794;18.258;2023-05-20T05:37:02;38.35;;;15.77;;
65156;SDS011;52745;49.794;18.258;2023-05-20T05:39:30;44.42;;;17.73;;
65156;SDS011;52745;49.794;18.258;2023-05-20T05:41:57;39.97;;;17.38;;
65156;SDS011;52745;49.794;18.258;2023-05-20T05:44:24;40.25;;;16.00;;
65156;SDS011;52745;49.794;18.258;2023-05-20T05:46:51;37.67;;;16.42;;
65156;SDS011;52745;49.794;18.258;2023-05-20T05:49:17;38.38;;;16.23;;
65156;SDS011;52745;49.794;18.258;2023-05-20T05:51:44;42.22;;;16.42;;
65156;SDS011;52745;49.794;18.258;2023-05-20T05:54:11;39.25;;;16.90;;
65156;SDS011;52745;49.794;18.258;2023-05-20T05:56:38;39.60;;;16.50;;
65156;SDS011;52745;49.794;18.258;2023-05-20T05:59:05;33.17;;;15.18;;
65156;SDS011;52745;49.794;18.258;2023-05-20T06:01:31;37.15;;;16.50;;
65156;SDS011;52745;49.794;18.258;2023-05-20T06:03:59;34.65;;;14.98;;
65156;SDS011;52745;49.794;18.258;2023-05-20T06:06:26;33.17;;;14.70;;
65156;SDS011;52745;49.794;18.258;2023-05-20T06:08:53;33.90;;;14.95;;
65156;SDS011;52745;49.794;18.258;2023-05-20T06:11:21;34.17;;;15.13;;
65156;SDS011;52745;49.794;18.258;2023-05-20T06:13:49;31.20;;;13.57;;
65156;SDS011;52745;49.794;18.258;2023-05-20T06:16:16;33.72;;;14.13;;
65156;SDS011;52745;49.794;18.258;2023-05-20T06:18:46;33.88;;;14.23;;
65156;SDS011;52745;49.794;18.258;2023-05-20T06:21:15;30.90;;;13.15;;
65156;SDS011;52745;49.794;18.258;2023-05-20T06:23:42;33.47;;;14.07;;
65156;SDS011;52745;49.794;18.258;2023-05-20T06:26:11;36.70;;;15.13;;
65156;SDS011;52745;49.794;18.258;2023-05-20T06:28:37;35.45;;;14.15;;
65156;SDS011;52745;49.794;18.258;2023-05-20T06:31:05;31.05;;;13.30;;
65156;SDS011;52745;49.794;18.258;2023-05-20T06:33:33;32.63;;;14.45;;
65156;SDS011;52745;49.794;18.258;2023-05-20T06:36:05;30.42;;;13.38;;
65156;SDS011;52745;49.794;18.258;2023-05-20T06:38:32;35.13;;;14.93;;
65156;SDS011;52745;49.794;18.258;2023-05-20T06:40:59;41.83;;;16.45;;
65156;SDS011;52745;49.794;18.258;2023-05-20T06:43:26;40.03;;;15.13;;
65156;SDS011;52745;49.794;18.258;2023-05-20T06:46:05;35.20;;;15.73;;
65156;SDS011;52745;49.794;18.258;2023-05-20T06:48:49;37.65;;;14.80;;
65156;SDS011;52745;49.794;18.258;2023-05-20T06:51:17;29.25;;;13.45;;
65156;SDS011;52745;49.794;18.258;2023-05-20T06:53:46;71.10;;;33.55;;
65156;SDS011;52745;49.794;18.258;2023-05-20T06:56:14;27.67;;;13.70;;
65156;SDS011;52745;49.794;18.258;2023-05-20T06:58:40;20.70;;;10.23;;
65156;SDS011;52745;49.794;18.258;2023-05-20T07:01:07;22.92;;;10.73;;
65156;SDS011;52745;49.794;18.258;2023-05-20T07:03:34;19.08;;;10.10;;
65156;SDS011;52745;49.794;18.258;2023-05-20T07:06:01;18.48;;;9.10;;
65156;SDS011;52745;49.794;18.258;2023-05-20T07:08:28;23.27;;;10.15;;
65156;SDS011;52745;49.794;18.258;2023-05-20T07:10:55;22.75;;;10.30;;
65156;SDS011;52745;49.794;18.258;2023-05-20T07:13:23;19.67;;;9.73;;
65156;SDS011;52745;49.794;18.258;2023-05-20T07:15:52;17.95;;;9.65;;
65156;SDS011;52745;49.794;18.258;2023-05-20T07:18:18;21.63;;;10.35;;
65156;SDS011;52745;49.794;18.258;2023-05-20T07:20:53;22.77;;;10.38;;
65156;SDS011;52745;49.794;18.258;2023-05-20T07:23:42;42.95;;;24.15;;
65156;SDS011;52745;49.794;18.258;2023-05-20T07:26:09;18.65;;;9.48;;
65156;SDS011;52745;49.794;18.258;2023-05-20T07:28:37;20.85;;;9.98;;
65156;SDS011;52745;49.794;18.258;2023-05-20T07:31:05;16.98;;;8.50;;
65156;SDS011;52745;49.794;18.258;2023-05-20T07:33:34;16.90;;;9.10;;
65156;SDS011;52745;49.794;18.258;2023-05-20T07:36:01;14.85;;;8.27;;
65156;SDS011;52745;49.794;18.258;2023-05-20T07:38:28;14.00;;;8.18;;
65156;SDS011;52745;49.794;18.258;2023-05-20T07:40:59;15.10;;;8.48;;
65156;SDS011;52745;49.794;18.258;2023-05-20T07:43:30;15.05;;;8.57;;
65156;SDS011;52745;49.794;18.258;2023-05-20T07:45:57;15.45;;;8.40;;
65156;SDS011;52745;49.794;18.258;2023-05-20T07:48:24;15.15;;;8.60;;
65156;SDS011;52745;49.794;18.258;2023-05-20T07:50:51;16.98;;;8.85;;
65156;SDS011;52745;49.794;18.258;2023-05-20T07:53:18;13.20;;;8.35;;
65156;SDS011;52745;49.794;18.258;2023-05-20T07:55:45;14.25;;;8.02;;
65156;SDS011;52745;49.794;18.258;2023-05-20T07:58:12;16.90;;;7.60;;
65156;SDS011;52745;49.794;18.258;2023-05-20T08:00:39;17.77;;;7.88;;
65156;SDS011;52745;49.794;18.258;2023-05-20T08:03:07;18.50;;;8.02;;
65156;SDS011;52745;49.794;18.258;2023-05-20T08:05:57;22.55;;;9.55;;
65156;SDS011;52745;49.794;18.258;2023-05-20T08:08:24;11.27;;;7.18;;
65156;SDS011;52745;49.794;18.258;2023-05-20T08:10:58;12.48;;;7.13;;
65156;SDS011;52745;49.794;18.258;2023-05-20T08:13:27;13.93;;;6.65;;
65156;SDS011;52745;49.794;18.258;2023-05-20T08:15:54;10.88;;;6.82;;
65156;SDS011;52745;49.794;18.258;2023-05-20T08:18:24;12.57;;;6.90;;
65156;SDS011;52745;49.794;18.258;2023-05-20T08:20:54;10.85;;;6.53;;
65156;SDS011;52745;49.794;18.258;2023-05-20T08:23:21;16.25;;;9.32;;
65156;SDS011;52745;49.794;18.258;2023-05-20T08:25:49;9.25;;;5.88;;
65156;SDS011;52745;49.794;18.258;2023-05-20T08:28:16;9.90;;;5.45;;
65156;SDS011;52745;49.794;18.258;2023-05-20T08:30:44;12.82;;;5.85;;
65156;SDS011;52745;49.794;18.258;2023-05-20T08:33:13;8.13;;;5.72;;
65156;SDS011;52745;49.794;18.258;2023-05-20T08:35:41;17.90;;;5.68;;
65156;SDS011;52745;49.794;18.258;2023-05-20T08:38:07;52.33;;;28.00;;
65156;SDS011;52745;49.794;18.258;2023-05-20T08:40:34;21.25;;;11.50;;
65156;SDS011;52745;49.794;18.258;2023-05-20T08:43:01;8.32;;;5.80;;
65156;SDS011;52745;49.794;18.258;2023-05-20T08:45:29;9.25;;;5.05;;
65156;SDS011;52745;49.794;18.258;2023-05-20T08:48:01;42.28;;;6.68;;
65156;SDS011;52745;49.794;18.258;2023-05-20T08:50:30;19.25;;;5.88;;
65156;SDS011;52745;49.794;18.258;2023-05-20T08:52:56;11.48;;;5.18;;
65156;SDS011;52745;49.794;18.258;2023-05-20T08:55:25;7.22;;;5.10;;
65156;SDS011;52745;49.794;18.258;2023-05-20T08:58:10;10.43;;;5.40;;
65156;SDS011;52745;49.794;18.258;2023-05-20T09:00:38;16.88;;;10.15;;
65156;SDS011;52745;49.794;18.258;2023-05-20T09:03:04;10.02;;;6.05;;
65156;SDS011;52745;49.794;18.258;2023-05-20T09:05:32;12.27;;;5.35;;
65156;SDS011;52745;49.794;18.258;2023-05-20T09:08:08;10.90;;;5.65;;
65156;SDS011;52745;49.794;18.258;2023-05-20T09:10:39;10.50;;;5.80;;
65156;SDS011;52745;49.794;18.258;2023-05-20T09:13:07;10.60;;;6.07;;
65156;SDS011;52745;49.794;18.258;2023-05-20T09:15:35;9.82;;;6.00;;
65156;SDS011;52745;49.794;18.258;2023-05-20T09:18:02;9.13;;;5.95;;
65156;SDS011;52745;49.794;18.258;2023-05-20T09:20:32;13.20;;;6.80;;
65156;SDS011;52745;49.794;18.258;2023-05-20T09:23:00;12.65;;;7.20;;
65156;SDS011;52745;49.794;18.258;2023-05-20T09:25:29;11.82;;;6.88;;
65156;SDS011;52745;49.794;18.258;2023-05-20T09:27:55;11.63;;;6.70;;
65156;SDS011;52745;49.794;18.258;2023-05-20T09:30:22;10.10;;;7.00;;
65156;SDS011;52745;49.794;18.258;2023-05-20T09:32:56;12.00;;;7.80;;
65156;SDS011;52745;49.794;18.258;2023-05-20T09:35:24;12.13;;;7.05;;
65156;SDS011;52745;49.794;18.258;2023-05-20T09:37:55;14.05;;;8.63;;
65156;SDS011;52745;49.794;18.258;2023-05-20T09:40:23;15.40;;;8.90;;
65156;SDS011;52745;49.794;18.258;2023-05-20T09:42:53;15.85;;;9.07;;
65156;SDS011;52745;49.794;18.258;2023-05-20T09:45:22;15.77;;;8.57;;
65156;SDS011;52745;49.794;18.258;2023-05-20T09:47:50;14.80;;;8.75;;
65156;SDS011;52745;49.794;18.258;2023-05-20T09:50:20;13.75;;;8.35;;
65156;SDS011;52745;49.794;18.258;2023-05-20T09:52:48;11.48;;;7.78;;
65156;SDS011;52745;49.794;18.258;2023-05-20T09:55:20;13.65;;;8.55;;
65156;SDS011;52745;49.794;18.258;2023-05-20T09:57:48;10.48;;;7.40;;
65156;SDS011;52745;49.794;18.258;2023-05-20T10:00:15;20.88;;;8.55;;
65156;SDS011;52745;49.794;18.258;2023-05-20T10:02:43;11.50;;;7.90;;
65156;SDS011;52745;49.794;18.258;2023-05-20T10:05:22;11.63;;;7.55;;
65156;SDS011;52745;49.794;18.258;2023-05-20T10:16:22;24.35;;;8.50;;
65156;SDS011;52745;49.794;18.258;2023-05-20T10:22:08;10.90;;;7.25;;
65156;SDS011;52745;49.794;18.258;2023-05-20T10:24:37;12.63;;;7.50;;
65156;SDS011;52745;49.794;18.258;2023-05-20T10:27:09;11.90;;;7.40;;
65156;SDS011;52745;49.794;18.258;2023-05-20T10:32:11;11.10;;;7.30;;
65156;SDS011;52745;49.794;18.258;2023-05-20T10:34:49;12.27;;;8.18;;
65156;SDS011;52745;49.794;18.258;2023-05-20T10:37:29;11.63;;;7.50;;
65156;SDS011;52745;49.794;18.258;2023-05-20T10:40:10;12.23;;;7.70;;
65156;SDS011;52745;49.794;18.258;2023-05-20T10:42:39;12.07;;;7.35;;
65156;SDS011;52745;49.794;18.258;2023-05-20T10:45:07;12.55;;;8.02;;
65156;SDS011;52745;49.794;18.258;2023-05-20T10:47:35;22.30;;;8.27;;
65156;SDS011;52745;49.794;18.258;2023-05-20T10:50:02;14.57;;;7.53;;
65156;SDS011;52745;49.794;18.258;2023-05-20T10:52:35;10.95;;;7.55;;
65156;SDS011;52745;49.794;18.258;2023-05-20T10:55:03;12.60;;;7.32;;
65156;SDS011;52745;49.794;18.258;2023-05-20T10:57:30;12.70;;;7.55;;
65156;SDS011;52745;49.794;18.258;2023-05-20T11:00:00;12.77;;;7.93;;
65156;SDS011;52745;49.794;18.258;2023-05-20T11:02:27;10.00;;;7.65;;
65156;SDS011;52745;49.794;18.258;2023-05-20T11:04:57;10.68;;;6.93;;
65156;SDS011;52745;49.794;18.258;2023-05-20T11:07:27;12.52;;;7.88;;
65156;SDS011;52745;49.794;18.258;2023-05-20T11:09:55;12.65;;;7.57;;
65156;SDS011;52745;49.794;18.258;2023-05-20T11:12:23;10.27;;;7.07;;
65156;SDS011;52745;49.794;18.258;2023-05-20T11:14:51;12.32;;;7.45;;
65156;SDS011;52745;49.794;18.258;2023-05-20T11:17:18;16.90;;;7.72;;
65156;SDS011;52745;49.794;18.258;2023-05-20T11:19:45;10.68;;;7.50;;
65156;SDS011;52745;49.794;18.258;2023-05-20T11:22:13;10.00;;;7.68;;
65156;SDS011;52745;49.794;18.258;2023-05-20T11:24:39;12.32;;;7.82;;
65156;SDS011;52745;49.794;18.258;2023-05-20T11:27:06;10.02;;;7.40;;
65156;SDS011;52745;49.794;18.258;2023-05-20T11:29:33;9.82;;;7.32;;
65156;SDS011;52745;49.794;18.258;2023-05-20T11:32:00;12.63;;;7.90;;
65156;SDS011;52745;49.794;18.258;2023-05-20T11:34:33;9.77;;;7.38;;
65156;SDS011;52745;49.794;18.258;2023-05-20T11:37:01;12.52;;;7.88;;
65156;SDS011;52745;49.794;18.258;2023-05-20T11:39:32;9.75;;;7.80;;
65156;SDS011;52745;49.794;18.258;2023-05-20T11:41:59;20.92;;;8.13;;
65156;SDS011;52745;49.794;18.258;2023-05-20T11:44:25;15.60;;;8.20;;
65156;SDS011;52745;49.794;18.258;2023-05-20T11:46:58;12.48;;;9.13;;
65156;SDS011;52745;49.794;18.258;2023-05-20T11:49:25;11.07;;;7.93;;
65156;SDS011;52745;49.794;18.258;2023-05-20T11:51:52;15.65;;;9.38;;
65156;SDS011;52745;49.794;18.258;2023-05-20T11:54:20;12.18;;;8.50;;
65156;SDS011;52745;49.794;18.258;2023-05-20T11:56:48;11.10;;;8.50;;
65156;SDS011;52745;49.794;18.258;2023-05-20T11:59:15;12.77;;;9.02;;
65156;SDS011;52745;49.794;18.258;2023-05-20T12:01:42;11.55;;;8.55;;
65156;SDS011;52745;49.794;18.258;2023-05-20T12:04:08;13.60;;;9.27;;
65156;SDS011;52745;49.794;18.258;2023-05-20T12:06:35;12.25;;;9.10;;
65156;SDS011;52745;49.794;18.258;2023-05-20T12:09:03;14.65;;;9.15;;
65156;SDS011;52745;49.794;18.258;2023-05-20T12:11:34;11.60;;;8.77;;
65156;SDS011;52745;49.794;18.258;2023-05-20T12:14:02;14.55;;;9.63;;
65156;SDS011;52745;49.794;18.258;2023-05-20T12:16:30;12.88;;;8.95;;
65156;SDS011;52745;49.794;18.258;2023-05-20T12:18:58;14.13;;;9.32;;
65156;SDS011;52745;49.794;18.258;2023-05-20T12:21:25;12.57;;;9.25;;
65156;SDS011;52745;49.794;18.258;2023-05-20T12:23:52;12.40;;;8.95;;
65156;SDS011;52745;49.794;18.258;2023-05-20T12:26:23;12.80;;;9.23;;
65156;SDS011;52745;49.794;18.258;2023-05-20T12:28:50;14.13;;;9.43;;
65156;SDS011;52745;49.794;18.258;2023-05-20T12:31:17;13.35;;;9.20;;
65156;SDS011;52745;49.794;18.258;2023-05-20T12:33:44;15.20;;;9.63;;
65156;SDS011;52745;49.794;18.258;2023-05-20T12:36:11;15.35;;;9.75;;
65156;SDS011;52745;49.794;18.258;2023-05-20T12:38:38;13.90;;;9.70;;
65156;SDS011;52745;49.794;18.258;2023-05-20T12:41:05;15.10;;;9.85;;
65156;SDS011;52745;49.794;18.258;2023-05-20T12:43:32;15.30;;;9.73;;
65156;SDS011;52745;49.794;18.258;2023-05-20T12:45:59;14.13;;;10.07;;
65156;SDS011;52745;49.794;18.258;2023-05-20T12:48:25;13.23;;;10.32;;
65156;SDS011;52745;49.794;18.258;2023-05-20T12:50:52;13.73;;;10.10;;
65156;SDS011;52745;49.794;18.258;2023-05-20T12:53:19;15.88;;;10.18;;
65156;SDS011;52745;49.794;18.258;2023-05-20T12:55:45;13.23;;;9.55;;
65156;SDS011;52745;49.794;18.258;2023-05-20T12:58:12;19.10;;;10.85;;
65156;SDS011;52745;49.794;18.258;2023-05-20T13:00:39;14.57;;;10.07;;
65156;SDS011;52745;49.794;18.258;2023-05-20T13:03:06;15.80;;;10.80;;
65156;SDS011;52745;49.794;18.258;2023-05-20T13:05:33;14.52;;;10.52;;
65156;SDS011;52745;49.794;18.258;2023-05-20T13:07:59;14.45;;;9.77;;
65156;SDS011;52745;49.794;18.258;2023-05-20T13:10:26;15.20;;;10.25;;
65156;SDS011;52745;49.794;18.258;2023-05-20T13:12:53;14.68;;;9.98;;
65156;SDS011;52745;49.794;18.258;2023-05-20T13:15:19;14.18;;;10.02;;
65156;SDS011;52745;49.794;18.258;2023-05-20T13:17:46;16.08;;;9.80;;
65156;SDS011;52745;49.794;18.258;2023-05-20T13:20:13;13.18;;;9.82;;
65156;SDS011;52745;49.794;18.258;2023-05-20T13:22:39;14.60;;;9.68;;
65156;SDS011;52745;49.794;18.258;2023-05-20T13:25:06;13.65;;;9.88;;
65156;SDS011;52745;49.794;18.258;2023-05-20T13:27:34;15.68;;;10.68;;
65156;SDS011;52745;49.794;18.258;2023-05-20T13:30:01;15.48;;;9.95;;
65156;SDS011;52745;49.794;18.258;2023-05-20T13:32:29;13.35;;;9.93;;
65156;SDS011;52745;49.794;18.258;2023-05-20T13:34:55;15.32;;;10.60;;
65156;SDS011;52745;49.794;18.258;2023-05-20T13:37:23;15.43;;;10.23;;
65156;SDS011;52745;49.794;18.258;2023-05-20T13:39:51;13.60;;;9.80;;
65156;SDS011;52745;49.794;18.258;2023-05-20T13:42:17;15.25;;;9.48;;
65156;SDS011;52745;49.794;18.258;2023-05-20T13:44:44;16.85;;;10.05;;
65156;SDS011;52745;49.794;18.258;2023-05-20T13:47:11;20.45;;;10.10;;
65156;SDS011;52745;49.794;18.258;2023-05-20T13:49:38;14.55;;;9.80;;
65156;SDS011;52745;49.794;18.258;2023-05-20T13:52:05;15.88;;;9.65;;
65156;SDS011;52745;49.794;18.258;2023-05-20T13:54:31;16.92;;;9.82;;
65156;SDS011;52745;49.794;18.258;2023-05-20T13:56:58;14.50;;;9.80;;
65156;SDS011;52745;49.794;18.258;2023-05-20T13:59:26;13.75;;;10.10;;
65156;SDS011;52745;49.794;18.258;2023-05-20T14:01:53;16.15;;;10.50;;
65156;SDS011;52745;49.794;18.258;2023-05-20T14:04:20;17.15;;;9.95;;
65156;SDS011;52745;49.794;18.258;2023-05-20T14:06:47;18.38;;;10.75;;
65156;SDS011;52745;49.794;18.258;2023-05-20T14:09:14;16.95;;;10.63;;
65156;SDS011;52745;49.794;18.258;2023-05-20T14:11:40;19.92;;;11.77;;
65156;SDS011;52745;49.794;18.258;2023-05-20T14:14:07;16.52;;;11.25;;
65156;SDS011;52745;49.794;18.258;2023-05-20T14:16:33;16.73;;;10.88;;
65156;SDS011;52745;49.794;18.258;2023-05-20T14:19:00;17.45;;;12.80;;
65156;SDS011;52745;49.794;18.258;2023-05-20T14:21:27;20.85;;;11.50;;
65156;SDS011;52745;49.794;18.258;2023-05-20T14:23:54;17.42;;;11.07;;
65156;SDS011;52745;49.794;18.258;2023-05-20T14:26:20;16.70;;;11.55;;
65156;SDS011;52745;49.794;18.258;2023-05-20T14:28:47;21.20;;;11.73;;
65156;SDS011;52745;49.794;18.258;2023-05-20T14:31:14;17.30;;;11.43;;
65156;SDS011;52745;49.794;18.258;2023-05-20T14:33:41;17.95;;;11.43;;